sensor_id;sensor_type;location;lat;lon;timestamp;temperature;humidity
74178;DHT22;62540;48.456;-4.456;2023-04-19T00:01:57;9.51;72.90
74178;DHT22;62540;48.456;-4.456;2023-04-19T00:04:23;9.50;72.76
74178;DHT22;62540;48.456;-4.456;2023-04-19T00:06:49;9.50;72.94
74178;DHT22;62540;48.456;-4.456;2023-04-19T00:09:16;9.51;73.11
74178;DHT22;62540;48.456;-4.456;2023-04-19T00:11:41;9.52;73.01
74178;DHT22;62540;48.456;-4.456;2023-04-19T00:14:06;9.51;73.06
74178;DHT22;62540;48.456;-4.456;2023-04-19T00:16:32;9.46;73.40
74178;DHT22;62540;48.456;-4.456;2023-04-19T00:18:57;9.48;73.46
74178;DHT22;62540;48.456;-4.456;2023-04-19T00:21:22;9.46;73.48
74178;DHT22;62540;48.456;-4.456;2023-04-19T00:23:48;9.47;73.54
74178;DHT22;62540;48.456;-4.456;2023-04-19T00:26:13;9.51;73.33
74178;DHT22;62540;48.456;-4.456;2023-04-19T00:28:40;9.47;73.67
74178;DHT22;62540;48.456;-4.456;2023-04-19T00:31:05;9.48;73.56
74178;DHT22;62540;48.456;-4.456;2023-04-19T00:33:31;9.46;73.50
74178;DHT22;62540;48.456;-4.456;2023-04-19T00:35:57;9.47;73.23
74178;DHT22;62540;48.456;-4.456;2023-04-19T00:38:22;9.46;73.44
74178;DHT22;62540;48.456;-4.456;2023-04-19T00:40:48;9.50;73.36
74178;DHT22;62540;48.456;-4.456;2023-04-19T00:43:19;9.47;73.46
74178;DHT22;62540;48.456;-4.456;2023-04-19T00:45:46;9.46;73.51
74178;DHT22;62540;48.456;-4.456;2023-04-19T00:48:12;9.50;73.34
74178;DHT22;62540;48.456;-4.456;2023-04-19T00:50:39;9.48;73.44
74178;DHT22;62540;48.456;-4.456;2023-04-19T00:53:06;9.48;73.55
74178;DHT22;62540;48.456;-4.456;2023-04-19T00:55:32;9.48;73.39
74178;DHT22;62540;48.456;-4.456;2023-04-19T00:57:58;9.50;73.36
74178;DHT22;62540;48.456;-4.456;2023-04-19T01:00:24;9.48;73.70
74178;DHT22;62540;48.456;-4.456;2023-04-19T01:02:49;9.47;73.88
74178;DHT22;62540;48.456;-4.456;2023-04-19T01:05:14;9.47;73.69
74178;DHT22;62540;48.456;-4.456;2023-04-19T01:07:41;9.47;73.90
74178;DHT22;62540;48.456;-4.456;2023-04-19T01:10:07;9.48;74.09
74178;DHT22;62540;48.456;-4.456;2023-04-19T01:12:33;9.47;74.03
74178;DHT22;62540;48.456;-4.456;2023-04-19T01:14:58;9.50;73.92
74178;DHT22;62540;48.456;-4.456;2023-04-19T01:17:24;9.47;74.00
74178;DHT22;62540;48.456;-4.456;2023-04-19T01:19:58;9.44;73.84
74178;DHT22;62540;48.456;-4.456;2023-04-19T01:22:24;9.44;74.25
74178;DHT22;62540;48.456;-4.456;2023-04-19T01:24:50;9.44;74.33
74178;DHT22;62540;48.456;-4.456;2023-04-19T01:27:16;9.43;74.23
74178;DHT22;62540;48.456;-4.456;2023-04-19T01:29:42;9.37;74.98
74178;DHT22;62540;48.456;-4.456;2023-04-19T01:32:07;9.40;74.58
74178;DHT22;62540;48.456;-4.456;2023-04-19T01:34:33;9.39;74.94
74178;DHT22;62540;48.456;-4.456;2023-04-19T01:36:58;9.41;74.75
74178;DHT22;62540;48.456;-4.456;2023-04-19T01:39:24;9.40;75.10
74178;DHT22;62540;48.456;-4.456;2023-04-19T01:41:50;9.40;74.96
74178;DHT22;62540;48.456;-4.456;2023-04-19T01:44:16;9.39;74.97
74178;DHT22;62540;48.456;-4.456;2023-04-19T01:46:41;9.40;75.04
74178;DHT22;62540;48.456;-4.456;2023-04-19T01:49:07;9.37;75.69
74178;DHT22;62540;48.456;-4.456;2023-04-19T01:51:33;9.37;75.75
74178;DHT22;62540;48.456;-4.456;2023-04-19T01:53:58;9.39;75.70
74178;DHT22;62540;48.456;-4.456;2023-04-19T01:56:23;9.44;75.51
74178;DHT22;62540;48.456;-4.456;2023-04-19T01:58:50;9.47;75.57
74178;DHT22;62540;48.456;-4.456;2023-04-19T02:01:15;9.47;75.69
74178;DHT22;62540;48.456;-4.456;2023-04-19T02:03:41;9.51;75.68
74178;DHT22;62540;48.456;-4.456;2023-04-19T02:06:10;9.52;76.03
74178;DHT22;62540;48.456;-4.456;2023-04-19T02:08:37;9.54;76.09
74178;DHT22;62540;48.456;-4.456;2023-04-19T02:11:06;9.57;75.75
74178;DHT22;62540;48.456;-4.456;2023-04-19T02:13:32;9.58;75.99
74178;DHT22;62540;48.456;-4.456;2023-04-19T02:15:58;9.58;76.05
74178;DHT22;62540;48.456;-4.456;2023-04-19T02:18:25;9.61;76.22
74178;DHT22;62540;48.456;-4.456;2023-04-19T02:20:51;9.62;76.22
74178;DHT22;62540;48.456;-4.456;2023-04-19T02:23:16;9.67;75.96
74178;DHT22;62540;48.456;-4.456;2023-04-19T02:25:41;9.70;75.94
74178;DHT22;62540;48.456;-4.456;2023-04-19T02:28:07;9.68;75.69
74178;DHT22;62540;48.456;-4.456;2023-04-19T02:30:32;9.70;75.78
74178;DHT22;62540;48.456;-4.456;2023-04-19T02:32:58;9.74;76.04
74178;DHT22;62540;48.456;-4.456;2023-04-19T02:35:23;9.73;75.84
74178;DHT22;62540;48.456;-4.456;2023-04-19T02:37:48;9.75;75.61
74178;DHT22;62540;48.456;-4.456;2023-04-19T02:40:14;9.77;75.69
74178;DHT22;62540;48.456;-4.456;2023-04-19T02:42:40;9.78;75.71
74178;DHT22;62540;48.456;-4.456;2023-04-19T02:45:06;9.78;75.57
74178;DHT22;62540;48.456;-4.456;2023-04-19T02:47:31;9.77;75.75
74178;DHT22;62540;48.456;-4.456;2023-04-19T02:49:56;9.78;75.50
74178;DHT22;62540;48.456;-4.456;2023-04-19T02:52:22;9.78;75.50
74178;DHT22;62540;48.456;-4.456;2023-04-19T02:54:47;9.75;75.45
74178;DHT22;62540;48.456;-4.456;2023-04-19T02:57:13;9.75;75.63
74178;DHT22;62540;48.456;-4.456;2023-04-19T02:59:38;9.77;75.54
74178;DHT22;62540;48.456;-4.456;2023-04-19T03:02:03;9.77;75.31
74178;DHT22;62540;48.456;-4.456;2023-04-19T03:04:29;9.77;75.29
74178;DHT22;62540;48.456;-4.456;2023-04-19T03:06:55;9.74;75.41
74178;DHT22;62540;48.456;-4.456;2023-04-19T03:09:20;9.74;75.63
74178;DHT22;62540;48.456;-4.456;2023-04-19T03:11:46;9.70;75.64
74178;DHT22;62540;48.456;-4.456;2023-04-19T03:14:11;9.68;75.53
74178;DHT22;62540;48.456;-4.456;2023-04-19T03:16:37;9.70;75.45
74178;DHT22;62540;48.456;-4.456;2023-04-19T03:19:02;9.68;75.92
74178;DHT22;62540;48.456;-4.456;2023-04-19T03:21:27;9.64;75.59
74178;DHT22;62540;48.456;-4.456;2023-04-19T03:23:54;9.65;75.99
74178;DHT22;62540;48.456;-4.456;2023-04-19T03:26:19;9.65;75.97
74178;DHT22;62540;48.456;-4.456;2023-04-19T03:28:45;9.65;76.15
74178;DHT22;62540;48.456;-4.456;2023-04-19T03:31:10;9.64;75.97
74178;DHT22;62540;48.456;-4.456;2023-04-19T03:33:36;9.67;75.78
74178;DHT22;62540;48.456;-4.456;2023-04-19T03:36:01;9.68;75.67
74178;DHT22;62540;48.456;-4.456;2023-04-19T03:38:27;9.68;75.61
74178;DHT22;62540;48.456;-4.456;2023-04-19T03:40:52;9.68;75.54
74178;DHT22;62540;48.456;-4.456;2023-04-19T03:43:17;9.67;75.69
74178;DHT22;62540;48.456;-4.456;2023-04-19T03:45:43;9.64;75.81
74178;DHT22;62540;48.456;-4.456;2023-04-19T03:48:08;9.68;75.75
74178;DHT22;62540;48.456;-4.456;2023-04-19T03:50:33;9.64;75.77
74178;DHT22;62540;48.456;-4.456;2023-04-19T03:52:59;9.65;75.76
74178;DHT22;62540;48.456;-4.456;2023-04-19T03:55:24;9.60;76.12
74178;DHT22;62540;48.456;-4.456;2023-04-19T03:57:50;9.58;76.10
74178;DHT22;62540;48.456;-4.456;2023-04-19T04:00:15;9.58;76.10
74178;DHT22;62540;48.456;-4.456;2023-04-19T04:02:41;9.58;76.28
74178;DHT22;62540;48.456;-4.456;2023-04-19T04:05:06;9.60;76.38
74178;DHT22;62540;48.456;-4.456;2023-04-19T04:07:32;9.58;76.34
74178;DHT22;62540;48.456;-4.456;2023-04-19T04:09:57;9.58;76.39
74178;DHT22;62540;48.456;-4.456;2023-04-19T04:12:23;9.55;76.65
74178;DHT22;62540;48.456;-4.456;2023-04-19T04:14:48;9.58;76.98
74178;DHT22;62540;48.456;-4.456;2023-04-19T04:17:13;9.57;77.16
74178;DHT22;62540;48.456;-4.456;2023-04-19T04:19:39;9.60;77.02
74178;DHT22;62540;48.456;-4.456;2023-04-19T04:22:05;9.64;77.61
74178;DHT22;62540;48.456;-4.456;2023-04-19T04:24:37;9.68;78.17
74178;DHT22;62540;48.456;-4.456;2023-04-19T04:27:02;9.70;78.21
74178;DHT22;62540;48.456;-4.456;2023-04-19T04:29:28;9.75;78.30
74178;DHT22;62540;48.456;-4.456;2023-04-19T04:31:53;9.79;78.11
74178;DHT22;62540;48.456;-4.456;2023-04-19T04:34:18;9.81;77.87
74178;DHT22;62540;48.456;-4.456;2023-04-19T04:36:44;9.88;77.91
74178;DHT22;62540;48.456;-4.456;2023-04-19T04:39:10;9.91;78.30
74178;DHT22;62540;48.456;-4.456;2023-04-19T04:41:36;9.92;78.08
74178;DHT22;62540;48.456;-4.456;2023-04-19T04:44:05;9.98;77.61
74178;DHT22;62540;48.456;-4.456;2023-04-19T04:46:30;9.99;78.00
74178;DHT22;62540;48.456;-4.456;2023-04-19T04:48:56;10.01;77.78
74178;DHT22;62540;48.456;-4.456;2023-04-19T04:51:21;10.03;77.88
74178;DHT22;62540;48.456;-4.456;2023-04-19T04:53:46;10.06;77.64
74178;DHT22;62540;48.456;-4.456;2023-04-19T04:56:12;10.06;77.72
74178;DHT22;62540;48.456;-4.456;2023-04-19T04:58:37;10.08;77.60
74178;DHT22;62540;48.456;-4.456;2023-04-19T05:01:03;10.12;77.43
74178;DHT22;62540;48.456;-4.456;2023-04-19T05:03:28;10.13;77.52
74178;DHT22;62540;48.456;-4.456;2023-04-19T05:05:54;10.15;77.42
74178;DHT22;62540;48.456;-4.456;2023-04-19T05:08:19;10.13;77.46
74178;DHT22;62540;48.456;-4.456;2023-04-19T05:10:44;10.13;77.59
74178;DHT22;62540;48.456;-4.456;2023-04-19T05:13:10;10.18;77.17
74178;DHT22;62540;48.456;-4.456;2023-04-19T05:15:36;10.18;77.19
74178;DHT22;62540;48.456;-4.456;2023-04-19T05:18:01;10.16;76.98
74178;DHT22;62540;48.456;-4.456;2023-04-19T05:20:28;10.19;77.00
74178;DHT22;62540;48.456;-4.456;2023-04-19T05:22:57;10.18;76.82
74178;DHT22;62540;48.456;-4.456;2023-04-19T05:25:23;10.18;77.21
74178;DHT22;62540;48.456;-4.456;2023-04-19T05:27:48;10.13;77.30
74178;DHT22;62540;48.456;-4.456;2023-04-19T05:30:13;10.13;77.37
74178;DHT22;62540;48.456;-4.456;2023-04-19T05:32:39;10.13;77.53
74178;DHT22;62540;48.456;-4.456;2023-04-19T05:35:05;10.12;77.49
74178;DHT22;62540;48.456;-4.456;2023-04-19T05:37:30;10.12;77.63
74178;DHT22;62540;48.456;-4.456;2023-04-19T05:39:56;10.15;77.35
74178;DHT22;62540;48.456;-4.456;2023-04-19T05:42:22;10.15;77.58
74178;DHT22;62540;48.456;-4.456;2023-04-19T05:44:47;10.15;77.69
74178;DHT22;62540;48.456;-4.456;2023-04-19T05:47:13;10.19;77.64
74178;DHT22;62540;48.456;-4.456;2023-04-19T05:49:38;10.18;77.62
74178;DHT22;62540;48.456;-4.456;2023-04-19T05:52:04;10.23;77.50
74178;DHT22;62540;48.456;-4.456;2023-04-19T05:54:29;10.25;78.06
74178;DHT22;62540;48.456;-4.456;2023-04-19T05:56:58;10.28;77.79
74178;DHT22;62540;48.456;-4.456;2023-04-19T05:59:24;10.32;77.71
74178;DHT22;62540;48.456;-4.456;2023-04-19T06:01:49;10.35;77.57
74178;DHT22;62540;48.456;-4.456;2023-04-19T06:04:14;10.39;77.49
74178;DHT22;62540;48.456;-4.456;2023-04-19T06:06:40;10.43;77.52
74178;DHT22;62540;48.456;-4.456;2023-04-19T06:09:05;10.50;77.41
74178;DHT22;62540;48.456;-4.456;2023-04-19T06:11:31;10.57;77.43
74178;DHT22;62540;48.456;-4.456;2023-04-19T06:13:57;10.64;77.49
74178;DHT22;62540;48.456;-4.456;2023-04-19T06:16:22;10.68;77.39
74178;DHT22;62540;48.456;-4.456;2023-04-19T06:18:47;10.76;77.33
74178;DHT22;62540;48.456;-4.456;2023-04-19T06:21:13;10.81;77.20
74178;DHT22;62540;48.456;-4.456;2023-04-19T06:23:38;10.88;77.37
74178;DHT22;62540;48.456;-4.456;2023-04-19T06:26:04;10.97;77.10
74178;DHT22;62540;48.456;-4.456;2023-04-19T06:28:29;11.01;77.19
74178;DHT22;62540;48.456;-4.456;2023-04-19T06:30:54;11.05;77.23
74178;DHT22;62540;48.456;-4.456;2023-04-19T06:33:20;11.12;77.16
74178;DHT22;62540;48.456;-4.456;2023-04-19T06:35:45;11.18;77.11
74178;DHT22;62540;48.456;-4.456;2023-04-19T06:38:10;11.26;77.08
74178;DHT22;62540;48.456;-4.456;2023-04-19T06:40:36;11.39;77.08
74178;DHT22;62540;48.456;-4.456;2023-04-19T06:43:01;11.49;77.10
74178;DHT22;62540;48.456;-4.456;2023-04-19T06:45:27;11.65;77.14
74178;DHT22;62540;48.456;-4.456;2023-04-19T06:47:52;11.93;76.86
74178;DHT22;62540;48.456;-4.456;2023-04-19T06:50:17;12.21;76.57
74178;DHT22;62540;48.456;-4.456;2023-04-19T06:52:43;12.58;76.34
74178;DHT22;62540;48.456;-4.456;2023-04-19T06:55:08;12.85;75.55
74178;DHT22;62540;48.456;-4.456;2023-04-19T06:57:34;12.99;75.02
74178;DHT22;62540;48.456;-4.456;2023-04-19T07:00:00;12.92;74.78
74178;DHT22;62540;48.456;-4.456;2023-04-19T07:02:25;12.89;74.87
74178;DHT22;62540;48.456;-4.456;2023-04-19T07:04:50;12.83;74.94
74178;DHT22;62540;48.456;-4.456;2023-04-19T07:07:16;12.76;74.95
74178;DHT22;62540;48.456;-4.456;2023-04-19T07:09:41;12.75;74.97
74178;DHT22;62540;48.456;-4.456;2023-04-19T07:12:07;12.73;75.19
74178;DHT22;62540;48.456;-4.456;2023-04-19T07:14:32;12.73;75.16
74178;DHT22;62540;48.456;-4.456;2023-04-19T07:16:58;12.75;75.10
74178;DHT22;62540;48.456;-4.456;2023-04-19T07:19:23;12.75;75.22
74178;DHT22;62540;48.456;-4.456;2023-04-19T07:21:49;12.73;75.01
74178;DHT22;62540;48.456;-4.456;2023-04-19T07:24:15;12.72;75.16
74178;DHT22;62540;48.456;-4.456;2023-04-19T07:26:40;12.75;75.00
74178;DHT22;62540;48.456;-4.456;2023-04-19T07:29:06;12.73;75.05
74178;DHT22;62540;48.456;-4.456;2023-04-19T07:31:31;12.72;74.97
74178;DHT22;62540;48.456;-4.456;2023-04-19T07:33:56;12.76;74.94
74178;DHT22;62540;48.456;-4.456;2023-04-19T07:36:22;12.78;74.62
74178;DHT22;62540;48.456;-4.456;2023-04-19T07:38:47;12.81;74.77
74178;DHT22;62540;48.456;-4.456;2023-04-19T07:41:12;12.89;74.88
74178;DHT22;62540;48.456;-4.456;2023-04-19T07:43:38;12.96;74.57
74178;DHT22;62540;48.456;-4.456;2023-04-19T07:46:11;12.96;74.23
74178;DHT22;62540;48.456;-4.456;2023-04-19T07:48:36;12.97;73.84
74178;DHT22;62540;48.456;-4.456;2023-04-19T07:51:15;13.11;73.81
74178;DHT22;62540;48.456;-4.456;2023-04-19T07:53:43;13.33;73.49
74178;DHT22;62540;48.456;-4.456;2023-04-19T07:56:10;13.41;73.62
74178;DHT22;62540;48.456;-4.456;2023-04-19T07:58:36;13.51;73.49
74178;DHT22;62540;48.456;-4.456;2023-04-19T08:01:02;13.54;72.40
74178;DHT22;62540;48.456;-4.456;2023-04-19T08:03:29;13.60;72.57
74178;DHT22;62540;48.456;-4.456;2023-04-19T08:05:54;13.64;72.27
74178;DHT22;62540;48.456;-4.456;2023-04-19T08:08:21;13.69;72.24
74178;DHT22;62540;48.456;-4.456;2023-04-19T08:10:46;13.75;71.33
74178;DHT22;62540;48.456;-4.456;2023-04-19T08:13:12;14.05;70.96
74178;DHT22;62540;48.456;-4.456;2023-04-19T08:15:37;14.40;70.80
74178;DHT22;62540;48.456;-4.456;2023-04-19T08:18:03;14.61;70.11
74178;DHT22;62540;48.456;-4.456;2023-04-19T08:20:30;14.99;69.74
74178;DHT22;62540;48.456;-4.456;2023-04-19T08:22:56;15.24;67.21
74178;DHT22;62540;48.456;-4.456;2023-04-19T08:25:21;15.38;67.26
74178;DHT22;62540;48.456;-4.456;2023-04-19T08:27:51;15.70;67.00
74178;DHT22;62540;48.456;-4.456;2023-04-19T08:30:16;15.82;66.78
74178;DHT22;62540;48.456;-4.456;2023-04-19T08:32:42;16.00;66.88
74178;DHT22;62540;48.456;-4.456;2023-04-19T08:35:07;16.21;66.77
74178;DHT22;62540;48.456;-4.456;2023-04-19T08:37:33;16.35;66.28
74178;DHT22;62540;48.456;-4.456;2023-04-19T08:39:58;16.58;65.35
74178;DHT22;62540;48.456;-4.456;2023-04-19T08:42:24;16.62;65.71
74178;DHT22;62540;48.456;-4.456;2023-04-19T08:44:49;16.47;64.86
74178;DHT22;62540;48.456;-4.456;2023-04-19T08:47:15;16.29;65.04
74178;DHT22;62540;48.456;-4.456;2023-04-19T08:49:41;16.08;64.91
74178;DHT22;62540;48.456;-4.456;2023-04-19T08:52:08;15.91;64.64
74178;DHT22;62540;48.456;-4.456;2023-04-19T08:54:35;15.98;64.93
74178;DHT22;62540;48.456;-4.456;2023-04-19T08:57:01;16.00;65.37
74178;DHT22;62540;48.456;-4.456;2023-04-19T08:59:27;16.00;64.92
74178;DHT22;62540;48.456;-4.456;2023-04-19T09:01:55;15.82;64.63
74178;DHT22;62540;48.456;-4.456;2023-04-19T09:04:24;15.74;64.56
74178;DHT22;62540;48.456;-4.456;2023-04-19T09:06:49;15.62;65.15
74178;DHT22;62540;48.456;-4.456;2023-04-19T09:09:19;15.53;64.91
74178;DHT22;62540;48.456;-4.456;2023-04-19T09:11:44;15.45;65.29
74178;DHT22;62540;48.456;-4.456;2023-04-19T09:14:13;15.47;65.64
74178;DHT22;62540;48.456;-4.456;2023-04-19T09:16:39;15.46;65.35
74178;DHT22;62540;48.456;-4.456;2023-04-19T09:19:05;15.36;65.48
74178;DHT22;62540;48.456;-4.456;2023-04-19T09:21:31;15.36;65.68
74178;DHT22;62540;48.456;-4.456;2023-04-19T09:23:58;15.40;65.55
74178;DHT22;62540;48.456;-4.456;2023-04-19T09:26:24;15.50;65.65
74178;DHT22;62540;48.456;-4.456;2023-04-19T09:29:05;15.76;65.48
74178;DHT22;62540;48.456;-4.456;2023-04-19T09:31:33;15.80;64.36
74178;DHT22;62540;48.456;-4.456;2023-04-19T09:34:16;15.98;64.51
74178;DHT22;62540;48.456;-4.456;2023-04-19T09:36:42;16.24;64.27
74178;DHT22;62540;48.456;-4.456;2023-04-19T09:39:08;16.62;63.11
74178;DHT22;62540;48.456;-4.456;2023-04-19T09:41:35;16.65;62.12
74178;DHT22;62540;48.456;-4.456;2023-04-19T09:44:14;16.58;62.90
74178;DHT22;62540;48.456;-4.456;2023-04-19T09:46:40;16.53;62.85
74178;DHT22;62540;48.456;-4.456;2023-04-19T09:51:49;16.47;62.62
74178;DHT22;62540;48.456;-4.456;2023-04-19T09:54:17;16.52;62.65
74178;DHT22;62540;48.456;-4.456;2023-04-19T09:56:43;16.53;62.07
74178;DHT22;62540;48.456;-4.456;2023-04-19T09:59:09;16.89;62.39
74178;DHT22;62540;48.456;-4.456;2023-04-19T10:01:41;17.20;61.04
74178;DHT22;62540;48.456;-4.456;2023-04-19T10:04:09;17.68;59.42
74178;DHT22;62540;48.456;-4.456;2023-04-19T10:06:36;17.86;59.63
74178;DHT22;62540;48.456;-4.456;2023-04-19T10:09:03;18.07;59.33
74178;DHT22;62540;48.456;-4.456;2023-04-19T10:11:36;18.27;57.96
74178;DHT22;62540;48.456;-4.456;2023-04-19T10:14:09;18.68;58.72
74178;DHT22;62540;48.456;-4.456;2023-04-19T10:16:35;18.68;56.71
74178;DHT22;62540;48.456;-4.456;2023-04-19T10:19:03;18.48;56.66
74178;DHT22;62540;48.456;-4.456;2023-04-19T10:21:30;18.23;56.63
74178;DHT22;62540;48.456;-4.456;2023-04-19T10:23:57;18.26;57.88
74178;DHT22;62540;48.456;-4.456;2023-04-19T10:26:23;18.25;57.23
74178;DHT22;62540;48.456;-4.456;2023-04-19T10:28:48;18.50;56.58
74178;DHT22;62540;48.456;-4.456;2023-04-19T10:31:15;18.94;55.44
74178;DHT22;62540;48.456;-4.456;2023-04-19T10:33:43;19.30;54.28
74178;DHT22;62540;48.456;-4.456;2023-04-19T10:36:10;19.43;52.33
74178;DHT22;62540;48.456;-4.456;2023-04-19T10:38:48;19.66;53.16
74178;DHT22;62540;48.456;-4.456;2023-04-19T10:41:17;19.85;53.56
74178;DHT22;62540;48.456;-4.456;2023-04-19T10:48:59;19.52;51.81
74178;DHT22;62540;48.456;-4.456;2023-04-19T10:51:26;19.27;52.75
74178;DHT22;62540;48.456;-4.456;2023-04-19T10:54:01;19.45;53.63
74178;DHT22;62540;48.456;-4.456;2023-04-19T11:01:40;20.10;51.88
74178;DHT22;62540;48.456;-4.456;2023-04-19T11:04:09;20.21;49.76
74178;DHT22;62540;48.456;-4.456;2023-04-19T11:06:37;20.48;51.28
74178;DHT22;62540;48.456;-4.456;2023-04-19T11:09:02;20.56;50.68
74178;DHT22;62540;48.456;-4.456;2023-04-19T11:11:35;20.62;49.34
74178;DHT22;62540;48.456;-4.456;2023-04-19T11:14:02;20.80;49.15
74178;DHT22;62540;48.456;-4.456;2023-04-19T11:16:29;20.96;49.15
74178;DHT22;62540;48.456;-4.456;2023-04-19T11:18:54;20.96;48.18
74178;DHT22;62540;48.456;-4.456;2023-04-19T11:21:20;20.84;48.43
74178;DHT22;62540;48.456;-4.456;2023-04-19T11:23:46;21.04;49.90
74178;DHT22;62540;48.456;-4.456;2023-04-19T11:26:14;21.17;48.63
74178;DHT22;62540;48.456;-4.456;2023-04-19T11:28:40;21.31;49.64
74178;DHT22;62540;48.456;-4.456;2023-04-19T11:31:06;21.55;47.94
74178;DHT22;62540;48.456;-4.456;2023-04-19T11:33:35;21.49;47.07
74178;DHT22;62540;48.456;-4.456;2023-04-19T11:36:01;21.55;46.74
74178;DHT22;62540;48.456;-4.456;2023-04-19T11:38:28;21.35;46.63
74178;DHT22;62540;48.456;-4.456;2023-04-19T11:41:00;21.38;48.07
74178;DHT22;62540;48.456;-4.456;2023-04-19T11:43:34;21.37;47.70
74178;DHT22;62540;48.456;-4.456;2023-04-19T11:46:09;21.38;47.89
74178;DHT22;62540;48.456;-4.456;2023-04-19T11:48:35;21.52;48.09
74178;DHT22;62540;48.456;-4.456;2023-04-19T11:51:02;21.62;46.37
74178;DHT22;62540;48.456;-4.456;2023-04-19T11:53:29;21.61;46.54
74178;DHT22;62540;48.456;-4.456;2023-04-19T11:56:02;21.66;46.20
74178;DHT22;62540;48.456;-4.456;2023-04-19T11:58:38;21.72;46.19
74178;DHT22;62540;48.456;-4.456;2023-04-19T12:01:09;21.83;45.58
74178;DHT22;62540;48.456;-4.456;2023-04-19T12:03:39;21.90;45.34
74178;DHT22;62540;48.456;-4.456;2023-04-19T12:06:10;21.93;45.89
74178;DHT22;62540;48.456;-4.456;2023-04-19T12:08:45;21.82;47.11
74178;DHT22;62540;48.456;-4.456;2023-04-19T12:11:12;21.58;44.60
74178;DHT22;62540;48.456;-4.456;2023-04-19T12:13:38;21.47;45.68
74178;DHT22;62540;48.456;-4.456;2023-04-19T12:16:05;21.45;46.80
74178;DHT22;62540;48.456;-4.456;2023-04-19T12:18:48;21.35;46.22
74178;DHT22;62540;48.456;-4.456;2023-04-19T12:21:25;21.26;47.32
74178;DHT22;62540;48.456;-4.456;2023-04-19T12:23:59;21.31;47.50
74178;DHT22;62540;48.456;-4.456;2023-04-19T12:26:26;21.44;47.39
74178;DHT22;62540;48.456;-4.456;2023-04-19T12:28:56;21.49;46.11
74178;DHT22;62540;48.456;-4.456;2023-04-19T12:31:21;21.44;45.56
74178;DHT22;62540;48.456;-4.456;2023-04-19T12:33:48;21.58;46.88
74178;DHT22;62540;48.456;-4.456;2023-04-19T12:36:13;21.72;47.04
74178;DHT22;62540;48.456;-4.456;2023-04-19T12:38:39;21.88;46.64
74178;DHT22;62540;48.456;-4.456;2023-04-19T12:41:04;21.78;46.48
74178;DHT22;62540;48.456;-4.456;2023-04-19T12:43:30;21.48;46.10
74178;DHT22;62540;48.456;-4.456;2023-04-19T12:45:56;21.26;47.46
74178;DHT22;62540;48.456;-4.456;2023-04-19T12:48:23;21.14;47.54
74178;DHT22;62540;48.456;-4.456;2023-04-19T12:50:48;21.11;47.72
74178;DHT22;62540;48.456;-4.456;2023-04-19T12:53:13;20.97;48.65
74178;DHT22;62540;48.456;-4.456;2023-04-19T12:55:39;20.86;48.74
74178;DHT22;62540;48.456;-4.456;2023-04-19T12:58:04;20.66;48.90
74178;DHT22;62540;48.456;-4.456;2023-04-19T13:00:30;20.45;49.29
74178;DHT22;62540;48.456;-4.456;2023-04-19T13:02:55;20.25;49.85
74178;DHT22;62540;48.456;-4.456;2023-04-19T13:05:21;20.17;50.47
74178;DHT22;62540;48.456;-4.456;2023-04-19T13:07:46;20.12;53.10
74178;DHT22;62540;48.456;-4.456;2023-04-19T13:10:11;20.04;54.04
74178;DHT22;62540;48.456;-4.456;2023-04-19T13:12:38;19.85;55.39
74178;DHT22;62540;48.456;-4.456;2023-04-19T13:15:03;19.62;55.59
74178;DHT22;62540;48.456;-4.456;2023-04-19T13:17:29;19.42;56.50
74178;DHT22;62540;48.456;-4.456;2023-04-19T13:19:54;19.26;56.60
74178;DHT22;62540;48.456;-4.456;2023-04-19T13:22:20;19.08;56.97
74178;DHT22;62540;48.456;-4.456;2023-04-19T13:24:46;19.06;57.15
74178;DHT22;62540;48.456;-4.456;2023-04-19T13:27:11;18.98;58.52
74178;DHT22;62540;48.456;-4.456;2023-04-19T13:29:37;18.94;58.16
74178;DHT22;62540;48.456;-4.456;2023-04-19T13:32:03;18.89;58.11
74178;DHT22;62540;48.456;-4.456;2023-04-19T13:34:31;18.75;58.19
74178;DHT22;62540;48.456;-4.456;2023-04-19T13:36:57;18.57;58.56
74178;DHT22;62540;48.456;-4.456;2023-04-19T13:39:22;18.48;57.99
74178;DHT22;62540;48.456;-4.456;2023-04-19T13:41:48;18.33;57.99
74178;DHT22;62540;48.456;-4.456;2023-04-19T13:44:13;18.23;58.10
74178;DHT22;62540;48.456;-4.456;2023-04-19T13:46:38;18.29;58.45
74178;DHT22;62540;48.456;-4.456;2023-04-19T13:49:04;18.23;58.56
74178;DHT22;62540;48.456;-4.456;2023-04-19T13:51:30;18.23;58.07
74178;DHT22;62540;48.456;-4.456;2023-04-19T13:53:55;18.26;58.54
74178;DHT22;62540;48.456;-4.456;2023-04-19T13:56:20;18.43;59.58
74178;DHT22;62540;48.456;-4.456;2023-04-19T13:58:46;18.61;58.40
74178;DHT22;62540;48.456;-4.456;2023-04-19T14:01:12;18.68;58.17
74178;DHT22;62540;48.456;-4.456;2023-04-19T14:03:37;18.78;58.12
74178;DHT22;62540;48.456;-4.456;2023-04-19T14:06:03;18.84;57.85
74178;DHT22;62540;48.456;-4.456;2023-04-19T14:08:28;18.94;58.04
74178;DHT22;62540;48.456;-4.456;2023-04-19T14:10:53;19.04;58.15
74178;DHT22;62540;48.456;-4.456;2023-04-19T14:13:19;19.26;58.11
74178;DHT22;62540;48.456;-4.456;2023-04-19T14:15:44;19.43;58.02
74178;DHT22;62540;48.456;-4.456;2023-04-19T14:18:10;19.52;57.60
74178;DHT22;62540;48.456;-4.456;2023-04-19T14:20:36;19.64;56.90
74178;DHT22;62540;48.456;-4.456;2023-04-19T14:23:01;19.67;57.16
74178;DHT22;62540;48.456;-4.456;2023-04-19T14:25:27;19.73;57.22
74178;DHT22;62540;48.456;-4.456;2023-04-19T14:27:53;19.70;57.33
74178;DHT22;62540;48.456;-4.456;2023-04-19T14:30:19;19.70;56.26
74178;DHT22;62540;48.456;-4.456;2023-04-19T14:32:44;19.66;56.37
74178;DHT22;62540;48.456;-4.456;2023-04-19T14:35:10;19.62;56.98
74178;DHT22;62540;48.456;-4.456;2023-04-19T14:37:36;19.60;56.59
74178;DHT22;62540;48.456;-4.456;2023-04-19T14:40:02;19.56;57.14
74178;DHT22;62540;48.456;-4.456;2023-04-19T14:42:28;19.52;57.10
74178;DHT22;62540;48.456;-4.456;2023-04-19T14:44:53;19.43;57.69
74178;DHT22;62540;48.456;-4.456;2023-04-19T14:47:19;19.39;57.26
74178;DHT22;62540;48.456;-4.456;2023-04-19T14:49:45;19.35;57.40
74178;DHT22;62540;48.456;-4.456;2023-04-19T14:52:11;19.32;57.63
74178;DHT22;62540;48.456;-4.456;2023-04-19T14:54:36;19.26;57.78
74178;DHT22;62540;48.456;-4.456;2023-04-19T14:57:02;19.18;58.34
74178;DHT22;62540;48.456;-4.456;2023-04-19T14:59:27;19.16;58.63
74178;DHT22;62540;48.456;-4.456;2023-04-19T15:01:53;19.14;58.81
74178;DHT22;62540;48.456;-4.456;2023-04-19T15:04:18;19.08;58.87
74178;DHT22;62540;48.456;-4.456;2023-04-19T15:06:43;19.01;59.53
74178;DHT22;62540;48.456;-4.456;2023-04-19T15:09:09;19.02;59.91
74178;DHT22;62540;48.456;-4.456;2023-04-19T15:11:35;19.04;59.35
74178;DHT22;62540;48.456;-4.456;2023-04-19T15:14:01;19.02;58.61
74178;DHT22;62540;48.456;-4.456;2023-04-19T15:16:26;19.01;58.61
74178;DHT22;62540;48.456;-4.456;2023-04-19T15:18:52;18.95;59.04
74178;DHT22;62540;48.456;-4.456;2023-04-19T15:21:18;18.95;59.43
74178;DHT22;62540;48.456;-4.456;2023-04-19T15:23:44;19.02;59.29
74178;DHT22;62540;48.456;-4.456;2023-04-19T15:26:09;19.06;58.85
74178;DHT22;62540;48.456;-4.456;2023-04-19T15:28:35;19.09;58.97